createdAt,value
2019-04-14T00:02:01.002Z,2.90
2019-04-14T00:04:35.842Z,2.60
2019-04-14T00:07:05.839Z,2.30
2019-04-14T00:09:37.928Z,2.77
2019-04-14T00:12:10.514Z,2.75
2019-04-14T00:14:42.439Z,3.05
2019-04-14T00:17:13.012Z,2.00
2019-04-14T00:19:43.480Z,2.67
2019-04-14T00:22:14.100Z,2.60
2019-04-14T00:24:44.775Z,2.40
2019-04-14T00:27:15.014Z,2.80
2019-04-14T00:29:45.791Z,2.92
2019-04-14T00:32:16.298Z,2.17
2019-04-14T00:35:23.744Z,2.72
2019-04-14T00:38:28.413Z,2.75
2019-04-14T00:41:17.995Z,3.42
2019-04-14T00:44:03.587Z,2.40
2019-04-14T00:46:40.940Z,4.45
2019-04-14T00:49:11.476Z,2.35
2019-04-14T00:51:42.439Z,2.42
2019-04-14T00:54:13.213Z,2.20
2019-04-14T00:56:43.392Z,2.75
2019-04-14T00:59:13.665Z,2.47
2019-04-14T01:01:43.850Z,3.02
2019-04-14T01:04:14.383Z,2.77
2019-04-14T01:06:44.841Z,2.60
2019-04-14T01:09:15.408Z,2.70
2019-04-14T01:11:46.407Z,2.70
2019-04-14T01:14:16.955Z,2.77
2019-04-14T01:16:47.407Z,2.92
2019-04-14T01:19:17.740Z,3.15
2019-04-14T01:21:48.178Z,2.25
2019-04-14T01:24:18.566Z,2.17
2019-04-14T01:26:48.885Z,2.75
2019-04-14T01:29:19.040Z,1.85
2019-04-14T01:31:49.372Z,2.33
2019-04-14T01:34:19.551Z,2.62
2019-04-14T01:36:49.787Z,2.77
2019-04-14T01:39:19.952Z,2.30
2019-04-14T01:41:50.187Z,6.03
2019-04-14T01:44:22.004Z,2.50
2019-04-14T01:46:54.250Z,2.62
2019-04-14T01:49:24.748Z,2.60
2019-04-14T01:52:25.612Z,2.72
2019-04-14T01:55:26.916Z,2.45
2019-04-14T01:58:27.388Z,2.65
2019-04-14T02:01:17.073Z,2.37
2019-04-14T02:03:47.831Z,2.02
2019-04-14T02:06:18.365Z,2.00
2019-04-14T02:08:48.591Z,2.55
2019-04-14T02:11:20.472Z,2.62
2019-04-14T02:13:50.949Z,3.10
2019-04-14T02:16:30.279Z,2.77
2019-04-14T02:18:54.909Z,2.92
2019-04-14T02:21:25.868Z,2.40
2019-04-14T02:23:56.180Z,2.72
2019-04-14T02:26:26.419Z,2.47
2019-04-14T02:28:57.174Z,2.98
2019-04-14T02:31:57.052Z,2.52
2019-04-14T02:37:08.087Z,2.30
2019-04-14T02:39:31.104Z,2.62
2019-04-14T02:44:38.304Z,3.15
2019-04-14T02:47:27.712Z,2.70
2019-04-14T02:49:44.227Z,2.70
2019-04-14T02:52:12.070Z,2.80
2019-04-14T02:57:17.270Z,2.50
2019-04-14T02:59:42.990Z,2.58
2019-04-14T03:04:51.021Z,2.35
2019-04-14T03:09:48.669Z,2.35
2019-04-14T03:15:01.048Z,2.98
2019-04-14T03:18:26.382Z,2.10
2019-04-14T03:20:55.623Z,2.70
2019-04-14T03:29:05.424Z,1.98
2019-04-14T03:32:03.878Z,2.90
2019-04-14T03:39:17.578Z,2.27
2019-04-14T03:41:45.189Z,2.37
2019-04-14T03:44:28.368Z,2.83
2019-04-14T03:47:08.683Z,2.22
2019-04-14T03:49:28.349Z,2.20
2019-04-14T03:52:26.906Z,2.90
2019-04-14T03:54:20.101Z,2.67
2019-04-14T03:56:53.559Z,2.58
2019-04-14T03:59:24.132Z,7.37
2019-04-14T04:01:56.432Z,2.90
2019-04-14T04:04:27.985Z,3.12
2019-04-14T04:06:59.524Z,2.80
2019-04-14T04:09:34.396Z,2.62
2019-04-14T04:12:05.295Z,3.50
2019-04-14T04:14:35.792Z,2.75
2019-04-14T04:17:23.372Z,2.60
2019-04-14T04:20:13.199Z,2.55
2019-04-14T04:23:01.519Z,2.95
2019-04-14T04:25:39.955Z,2.60
2019-04-14T04:28:34.551Z,2.37
2019-04-14T04:31:08.893Z,2.30
2019-04-14T04:34:01.070Z,3.10
2019-04-14T04:36:53.087Z,3.27
2019-04-14T04:39:30.074Z,2.00
2019-04-14T04:42:00.506Z,2.47
2019-04-14T04:44:31.528Z,2.75
2019-04-14T04:47:03.400Z,2.35
2019-04-14T04:49:34.165Z,2.83
2019-04-14T04:52:04.303Z,2.62
2019-04-14T04:54:34.411Z,2.52
2019-04-14T04:57:04.668Z,2.08
2019-04-14T04:59:34.928Z,2.27
2019-04-14T05:02:04.814Z,4.50
2019-04-14T05:04:35.124Z,2.10
2019-04-14T05:07:05.653Z,3.33
2019-04-14T05:10:02.701Z,2.15
2019-04-14T05:12:41.348Z,2.83
2019-04-14T05:15:40.328Z,2.62
2019-04-14T05:18:17.885Z,3.47
2019-04-14T05:20:48.788Z,2.30
2019-04-14T05:23:19.196Z,2.30
2019-04-14T05:25:49.582Z,3.77
2019-04-14T05:28:20.287Z,3.85
2019-04-14T05:30:50.460Z,2.33
2019-04-14T05:33:23.220Z,5.03
2019-04-14T05:47:58.923Z,2.75
2019-04-14T05:50:29.249Z,2.25
2019-04-14T05:53:00.033Z,2.30
2019-04-14T05:55:31.178Z,2.25
2019-04-14T05:58:01.473Z,3.87
2019-04-14T06:00:32.069Z,2.47
2019-04-14T06:03:03.730Z,2.98
2019-04-14T06:05:34.081Z,1.70
2019-04-14T06:08:04.307Z,2.37
2019-04-14T06:10:34.764Z,2.10
2019-04-14T06:13:04.944Z,2.22
2019-04-14T06:15:36.227Z,2.35
2019-04-14T06:18:06.742Z,2.67
2019-04-14T06:20:37.132Z,2.45
2019-04-14T06:23:07.251Z,3.27
2019-04-14T06:25:37.301Z,3.50
2019-04-14T06:28:07.546Z,3.87
2019-04-14T06:30:55.104Z,2.50
2019-04-14T06:33:40.649Z,2.83
2019-04-14T06:36:29.062Z,2.83
2019-04-14T06:39:08.522Z,2.37
2019-04-14T06:41:38.770Z,2.85
2019-04-14T06:44:09.031Z,4.40
2019-04-14T06:46:39.550Z,3.17
2019-04-14T06:49:09.992Z,2.40
2019-04-14T06:51:40.400Z,3.45
2019-04-14T06:54:10.604Z,3.27
2019-04-14T06:56:41.922Z,2.85
2019-04-14T06:59:11.951Z,4.37
2019-04-14T07:01:42.417Z,3.90
2019-04-14T07:04:12.599Z,3.27
2019-04-14T07:06:42.571Z,3.08
2019-04-14T07:09:13.044Z,4.37
2019-04-14T07:11:43.246Z,3.00
2019-04-14T07:14:13.337Z,3.87
2019-04-14T07:16:43.515Z,2.67
2019-04-14T07:19:13.807Z,3.47
2019-04-14T07:21:43.922Z,3.33
2019-04-14T07:24:14.260Z,2.77
2019-04-14T07:26:44.459Z,2.15
2019-04-14T07:29:14.913Z,4.00
2019-04-14T07:32:12.934Z,2.77
2019-04-14T07:34:56.910Z,3.27
2019-04-14T07:37:43.895Z,4.17
2019-04-14T07:40:30.773Z,1.92
2019-04-14T07:43:15.493Z,3.52
2019-04-14T07:45:56.358Z,3.20
2019-04-14T07:48:36.641Z,4.50
2019-04-14T07:51:40.710Z,3.98
2019-04-14T07:54:41.757Z,3.47
2019-04-14T07:57:33.645Z,3.08
2019-04-14T08:00:13.508Z,3.83
2019-04-14T08:03:00.770Z,2.25
2019-04-14T08:05:34.424Z,2.75
2019-04-14T08:08:04.708Z,3.12
2019-04-14T08:10:35.363Z,2.70
2019-04-14T08:13:05.694Z,2.90
2019-04-14T08:15:36.088Z,1.65
2019-04-14T08:18:06.217Z,3.40
2019-04-14T08:20:37.079Z,2.60
2019-04-14T08:23:07.453Z,2.62
2019-04-14T08:25:37.939Z,3.42
2019-04-14T08:28:08.828Z,4.10
2019-04-14T08:30:39.825Z,3.95
2019-04-14T08:33:10.674Z,2.15
2019-04-14T08:35:41.162Z,3.52
2019-04-14T08:38:11.395Z,3.12
2019-04-14T08:40:41.425Z,2.52
2019-04-14T08:43:34.086Z,2.75
2019-04-14T08:46:31.842Z,2.02
2019-04-14T08:49:26.806Z,2.20
2019-04-14T08:52:20.996Z,1.73
2019-04-14T08:55:09.935Z,1.37
2019-04-14T08:57:57.635Z,2.85
2019-04-14T09:00:42.896Z,4.17
2019-04-14T09:06:17.270Z,3.60
2019-04-14T09:09:11.734Z,2.53
2019-04-14T09:11:47.019Z,4.20
2019-04-14T09:14:17.263Z,3.40
2019-04-14T09:16:49.179Z,1.98
2019-04-14T09:19:19.622Z,2.65
2019-04-14T09:21:49.705Z,4.85
2019-04-14T09:24:20.393Z,2.80
2019-04-14T09:26:53.074Z,3.08
2019-04-14T09:29:23.282Z,2.15
2019-04-14T09:31:54.780Z,2.42
2019-04-14T09:34:24.734Z,2.72
2019-04-14T09:36:55.214Z,2.25
2019-04-14T09:39:25.321Z,3.40
2019-04-14T09:41:57.263Z,4.60
2019-04-14T09:44:27.974Z,2.30
2019-04-14T09:46:57.901Z,2.27
2019-04-14T09:49:27.947Z,2.52
2019-04-14T09:51:59.430Z,2.33
2019-04-14T09:54:29.664Z,2.15
2019-04-14T09:57:03.226Z,2.80
2019-04-14T09:59:33.275Z,2.83
2019-04-14T10:02:03.530Z,7.97
2019-04-14T10:04:33.794Z,2.40
2019-04-14T10:07:04.148Z,2.35
2019-04-14T10:09:34.382Z,3.08
2019-04-14T10:12:04.615Z,3.22
2019-04-14T10:14:44.474Z,2.12
2019-04-14T10:17:14.589Z,2.80
2019-04-14T10:19:47.737Z,2.20
2019-04-14T10:22:33.169Z,2.50
2019-04-14T10:24:52.535Z,3.52
2019-04-14T10:27:22.919Z,2.70
2019-04-14T10:29:53.140Z,2.95
2019-04-14T10:32:24.224Z,2.52
2019-04-14T10:34:55.530Z,3.75
2019-04-14T10:37:25.397Z,2.77
2019-04-14T10:39:55.885Z,2.00
2019-04-14T10:42:25.790Z,2.33
2019-04-14T10:44:56.026Z,2.27
2019-04-14T10:47:26.111Z,2.25
2019-04-14T10:49:56.320Z,2.42
2019-04-14T10:52:26.197Z,2.35
2019-04-14T10:54:56.044Z,2.72
2019-04-14T10:57:26.139Z,2.62
2019-04-14T10:59:56.603Z,3.12
2019-04-14T11:02:26.836Z,2.55
2019-04-14T11:04:57.058Z,2.22
2019-04-14T11:07:29.421Z,2.55
2019-04-14T11:09:59.641Z,2.52
2019-04-14T11:12:29.754Z,3.00
2019-04-14T11:15:00.462Z,2.62
2019-04-14T11:17:31.680Z,3.02
2019-04-14T11:20:01.972Z,3.05
2019-04-14T11:22:32.373Z,3.52
2019-04-14T11:25:02.341Z,4.40
2019-04-14T11:27:34.107Z,15.75
2019-04-14T11:30:04.735Z,2.62
2019-04-14T11:32:56.752Z,2.45
2019-04-14T11:35:39.659Z,2.52
2019-04-14T11:38:16.029Z,2.65
2019-04-14T11:40:50.967Z,2.55
2019-04-14T11:43:20.456Z,3.72
2019-04-14T11:45:50.644Z,2.45
2019-04-14T11:48:21.280Z,2.72
2019-04-14T11:50:51.213Z,2.87
2019-04-14T11:53:21.709Z,2.50
2019-04-14T11:55:51.691Z,2.40
2019-04-14T11:58:22.268Z,3.72
2019-04-14T12:01:11.788Z,2.95
2019-04-14T12:04:00.919Z,3.45
2019-04-14T12:06:43.415Z,3.35
2019-04-14T12:09:22.686Z,2.58
2019-04-14T12:11:53.976Z,2.75
2019-04-14T12:14:24.481Z,2.50
2019-04-14T12:16:54.423Z,2.80
2019-04-14T12:19:24.644Z,2.58
2019-04-14T12:22:07.453Z,3.00
2019-04-14T12:24:30.198Z,3.20
2019-04-14T12:27:00.419Z,3.25
2019-04-14T12:29:30.511Z,3.35
2019-04-14T12:32:01.796Z,3.55
2019-04-14T12:34:31.968Z,2.98
2019-04-14T12:37:02.138Z,3.85
2019-04-14T12:39:32.859Z,8.93
2019-04-14T12:42:37.417Z,3.95
2019-04-14T12:45:26.329Z,5.87
2019-04-14T12:48:15.322Z,6.22
2019-04-14T12:50:53.187Z,4.92
2019-04-14T12:53:23.560Z,5.55
2019-04-14T12:55:53.561Z,4.22
2019-04-14T12:58:32.086Z,4.22
2019-04-14T13:01:06.246Z,3.50
2019-04-14T13:03:41.913Z,5.33
2019-04-14T13:06:11.851Z,5.28
2019-04-14T13:08:41.855Z,6.40
2019-04-14T13:11:11.903Z,6.70
2019-04-14T13:13:42.016Z,5.53
2019-04-14T13:16:12.056Z,4.67
2019-04-14T13:18:42.611Z,5.92
2019-04-14T13:21:13.260Z,6.17
2019-04-14T13:23:43.372Z,5.60
2019-04-14T13:26:13.758Z,8.40
2019-04-14T13:28:43.957Z,5.17
2019-04-14T13:31:14.295Z,5.42
2019-04-14T13:33:44.453Z,5.10
2019-04-14T13:36:14.596Z,5.50
2019-04-14T13:38:45.571Z,6.08
2019-04-14T13:41:15.509Z,6.80
2019-04-14T13:43:46.011Z,4.95
2019-04-14T13:46:15.870Z,5.58
2019-04-14T13:48:46.085Z,6.53
2019-04-14T13:51:16.032Z,6.92
2019-04-14T13:53:46.160Z,6.60
2019-04-14T13:56:16.218Z,7.22
2019-04-14T13:58:46.324Z,6.22
2019-04-14T14:01:16.535Z,5.50
2019-04-14T14:03:46.749Z,6.30
2019-04-14T14:06:17.116Z,8.15
2019-04-14T14:08:47.328Z,7.53
2019-04-14T14:11:54.503Z,8.68
2019-04-14T14:14:46.798Z,6.22
2019-04-14T14:17:26.274Z,7.83
2019-04-14T14:20:11.218Z,9.23
2019-04-14T14:22:59.560Z,7.10
2019-04-14T14:25:33.251Z,10.50
2019-04-14T14:30:31.521Z,9.73
2019-04-14T14:33:05.166Z,12.40
2019-04-14T14:35:35.883Z,6.08
2019-04-14T14:38:06.480Z,7.30
2019-04-14T14:40:36.565Z,9.83
2019-04-14T14:43:07.046Z,7.78
2019-04-14T14:45:47.074Z,7.70
2019-04-14T14:48:29.417Z,6.92
2019-04-14T14:51:21.537Z,8.55
2019-04-14T14:53:51.706Z,7.10
2019-04-14T14:56:22.002Z,6.30
2019-04-14T14:58:52.098Z,7.40
2019-04-14T15:01:22.461Z,6.70
2019-04-14T15:03:52.952Z,7.55
2019-04-14T15:06:23.336Z,8.50
2019-04-14T15:08:53.568Z,6.33
2019-04-14T15:11:24.220Z,5.80
2019-04-14T15:13:54.434Z,7.03
2019-04-14T15:16:24.908Z,5.30
2019-04-14T15:18:55.530Z,3.80
2019-04-14T15:21:25.788Z,6.50
2019-04-14T15:23:56.240Z,6.03
2019-04-14T15:26:26.873Z,4.70
2019-04-14T15:28:59.152Z,5.20
2019-04-14T15:31:29.551Z,4.37
2019-04-14T15:34:00.012Z,5.25
2019-04-14T15:36:30.263Z,4.53
2019-04-14T15:39:00.674Z,4.45
2019-04-14T15:41:32.462Z,5.78
2019-04-14T15:44:02.684Z,5.85
2019-04-14T15:46:34.462Z,4.65
2019-04-14T15:49:04.961Z,4.00
2019-04-14T15:51:35.486Z,6.78
2019-04-14T15:54:05.977Z,5.45
2019-04-14T15:56:55.711Z,4.78
2019-04-14T15:59:41.644Z,4.50
2019-04-14T16:02:44.124Z,4.45
2019-04-14T16:05:32.013Z,4.70
2019-04-14T16:08:09.557Z,5.20
2019-04-14T16:11:05.353Z,4.67
2019-04-14T16:13:46.814Z,3.98
2019-04-14T16:16:24.428Z,4.42
2019-04-14T16:19:11.249Z,3.42
2019-04-14T16:21:42.281Z,5.47
2019-04-14T16:24:12.705Z,4.72
2019-04-14T16:26:50.865Z,3.72
2019-04-14T16:29:40.235Z,4.30
2019-04-14T16:32:41.324Z,4.80
2019-04-14T16:35:19.382Z,4.95
2019-04-14T16:37:50.328Z,4.80
2019-04-14T16:40:20.991Z,5.47
2019-04-14T16:42:51.512Z,6.47
2019-04-14T16:45:22.125Z,6.12
2019-04-14T16:47:52.532Z,5.80
2019-04-14T16:50:23.412Z,7.05
2019-04-14T16:53:12.541Z,6.00
2019-04-14T16:55:57.415Z,7.62
2019-04-14T16:58:33.277Z,6.78
2019-04-14T17:01:07.614Z,7.08
2019-04-14T17:06:07.092Z,7.55
2019-04-14T17:08:37.452Z,7.65
2019-04-14T17:11:07.676Z,7.72
2019-04-14T17:13:41.029Z,7.85
2019-04-14T17:16:29.161Z,8.30
2019-04-14T17:19:18.733Z,7.47
2019-04-14T17:22:05.087Z,9.50
2019-04-14T17:24:55.213Z,9.18
2019-04-14T17:27:47.306Z,7.50
2019-04-14T17:30:43.189Z,11.20
2019-04-14T17:33:34.381Z,9.00
2019-04-14T17:36:29.751Z,6.42
2019-04-14T17:39:25.294Z,7.95
2019-04-14T17:42:11.465Z,7.45
2019-04-14T17:44:58.406Z,8.23
2019-04-14T17:47:41.557Z,10.28
2019-04-14T17:50:39.978Z,9.28
2019-04-14T17:53:17.303Z,8.20
2019-04-14T17:55:58.895Z,7.53
2019-04-14T17:58:42.665Z,8.63
2019-04-14T18:01:38.857Z,10.03
2019-04-14T18:04:44.791Z,8.98
2019-04-14T18:07:24.288Z,8.45
2019-04-14T18:10:14.215Z,8.75
2019-04-14T18:13:02.103Z,8.48
2019-04-14T18:15:51.193Z,9.53
2019-04-14T18:18:39.101Z,8.53
2019-04-14T18:21:12.867Z,7.37
2019-04-14T18:23:43.418Z,9.93
2019-04-14T18:26:13.725Z,8.40
2019-04-14T18:28:51.852Z,9.38
2019-04-14T18:31:46.908Z,7.90
2019-04-14T18:34:53.765Z,7.33
2019-04-14T18:37:37.361Z,8.63
2019-04-14T18:40:12.612Z,7.17
2019-04-14T18:43:20.664Z,7.25
2019-04-14T18:46:09.129Z,7.10
2019-04-14T18:48:45.000Z,7.53
2019-04-14T18:51:36.429Z,6.72
2019-04-14T18:54:26.130Z,6.80
2019-04-14T18:57:20.325Z,5.30
2019-04-14T19:00:10.223Z,7.55
2019-04-14T19:02:42.124Z,4.50
2019-04-14T19:05:12.367Z,7.72
2019-04-14T19:07:43.074Z,6.90
2019-04-14T19:10:13.323Z,5.95
2019-04-14T19:12:55.715Z,6.67
2019-04-14T19:15:33.565Z,6.33
2019-04-14T19:18:27.746Z,8.53
2019-04-14T19:21:18.163Z,7.00
2019-04-14T19:23:48.569Z,8.00
2019-04-14T19:26:20.429Z,6.33
2019-04-14T19:28:51.057Z,5.55
2019-04-14T19:31:21.587Z,7.95
2019-04-14T19:33:51.831Z,6.95
2019-04-14T19:36:22.137Z,7.95
2019-04-14T19:38:52.306Z,7.72
2019-04-14T19:41:22.762Z,8.53
2019-04-14T19:43:52.877Z,6.55
2019-04-14T19:46:22.985Z,7.08
2019-04-14T19:48:53.842Z,8.13
2019-04-14T19:51:23.979Z,8.10
2019-04-14T19:53:54.237Z,9.38
2019-04-14T19:56:24.113Z,6.12
2019-04-14T19:58:54.201Z,6.65
2019-04-14T20:01:24.273Z,7.12
2019-04-14T20:03:54.240Z,9.18
2019-04-14T20:06:24.488Z,6.47
2019-04-14T20:08:56.734Z,6.65
2019-04-14T20:11:26.832Z,8.73
2019-04-14T20:13:56.913Z,6.95
2019-04-14T20:16:52.347Z,10.58
2019-04-14T20:19:39.882Z,8.68
2019-04-14T20:22:35.253Z,7.75
2019-04-14T20:25:19.006Z,7.20
2019-04-14T20:28:10.935Z,6.42
2019-04-14T20:30:54.573Z,5.53
2019-04-14T20:33:24.694Z,4.42
2019-04-14T20:35:56.443Z,6.33
2019-04-14T20:38:26.700Z,5.42
2019-04-14T20:40:56.883Z,5.40
2019-04-14T20:43:27.173Z,6.42
2019-04-14T20:45:59.992Z,6.85
2019-04-14T20:48:30.047Z,8.43
2019-04-14T20:51:03.017Z,8.40
2019-04-14T20:53:33.129Z,7.33
2019-04-14T20:56:03.742Z,7.70
2019-04-14T20:58:33.704Z,6.70
2019-04-14T21:01:05.872Z,7.17
2019-04-14T21:03:43.772Z,6.08
2019-04-14T21:06:35.655Z,5.78
2019-04-14T21:09:32.617Z,5.70
2019-04-14T21:12:08.131Z,5.08
2019-04-14T21:14:53.638Z,6.00
2019-04-14T21:17:30.097Z,3.80
2019-04-14T21:20:25.508Z,4.17
2019-04-14T21:23:05.849Z,5.47
2019-04-14T21:26:00.678Z,4.53
2019-04-14T21:28:49.301Z,5.45
2019-04-14T21:31:24.512Z,5.72
2019-04-14T21:34:13.319Z,4.22
2019-04-14T21:36:51.729Z,3.72
2019-04-14T21:39:40.757Z,4.80
2019-04-14T21:42:11.250Z,4.87
2019-04-14T21:44:41.728Z,4.03
2019-04-14T21:47:12.214Z,4.58
2019-04-14T21:49:42.296Z,4.30
2019-04-14T21:52:27.802Z,5.22
2019-04-14T21:55:01.625Z,4.72
2019-04-14T21:57:50.629Z,4.47
2019-04-14T22:01:06.361Z,3.92
2019-04-14T22:03:46.244Z,4.78
2019-04-14T22:06:28.861Z,4.42
2019-04-14T22:09:05.833Z,5.55
2019-04-14T22:11:39.263Z,4.33
2019-04-14T22:14:09.505Z,5.37
2019-04-14T22:16:39.638Z,5.53
2019-04-14T22:19:09.944Z,5.25
2019-04-14T22:21:40.558Z,5.00
2019-04-14T22:24:11.147Z,4.70
2019-04-14T22:26:42.883Z,4.12
2019-04-14T22:29:13.595Z,5.17
2019-04-14T22:31:44.047Z,4.37
2019-04-14T22:34:14.282Z,4.42
2019-04-14T22:36:44.754Z,4.10
2019-04-14T22:39:16.541Z,4.30
2019-04-14T22:41:46.965Z,4.50
2019-04-14T22:44:17.136Z,3.67
2019-04-14T22:46:47.302Z,5.28
2019-04-14T22:49:17.670Z,5.00
2019-04-14T22:51:47.819Z,4.30
2019-04-14T22:54:17.928Z,3.67
2019-04-14T22:56:48.114Z,4.30
2019-04-14T22:59:18.585Z,4.97
2019-04-14T23:01:51.835Z,3.55
2019-04-14T23:04:52.021Z,5.45
2019-04-14T23:07:33.071Z,4.33
2019-04-14T23:10:22.121Z,4.85
2019-04-14T23:13:01.893Z,4.50
2019-04-14T23:16:00.293Z,3.52
2019-04-14T23:18:50.723Z,3.77
2019-04-14T23:21:36.892Z,4.87
2019-04-14T23:24:28.505Z,4.42
2019-04-14T23:26:58.615Z,3.62
2019-04-14T23:29:28.939Z,3.67
2019-04-14T23:31:59.735Z,2.72
2019-04-14T23:34:29.770Z,3.50
2019-04-14T23:36:59.733Z,3.75
2019-04-14T23:39:30.033Z,3.35
2019-04-14T23:42:00.123Z,3.65
2019-04-14T23:44:30.343Z,3.75
2019-04-14T23:47:01.830Z,4.65
2019-04-14T23:49:32.481Z,4.22
2019-04-14T23:52:02.819Z,3.47
2019-04-14T23:54:33.040Z,3.00
2019-04-14T23:57:05.884Z,4.00
2019-04-14T23:59:34.724Z,2.92
